Terminal Aerodrome Forecast
Issued by NWS St Louis, MO

Home | Current Version | Previous Version | Text Only | Print | Product List | Glossary On
Versions: 1 2 3 4 5 6 7 8 9 10 11 12 13 14 15 16 17 18
000
FTUS43 KLSX 280520
TAFCOU
TAF
KCOU 280520Z 2806/2906 16008KT P6SM SCT250
     FM281300 18012G19KT P6SM SCT250
     FM281600 18015G25KT P6SM SCT045
     FM290100 19010KT P6SM SCT250=

USA.gov is the U.S. government's official web portal to all federal, state and local government web resources and services.